sensor_id;sensor_type;location;lat;lon;timestamp;P1;durP1;ratioP1;P2;durP2;ratioP2
31206;SDS011;17834;52.992;8.856;2023-05-10T00:00:10;3.80;;;2.13;;
31206;SDS011;17834;52.992;8.856;2023-05-10T00:02:37;5.50;;;2.95;;
31206;SDS011;17834;52.992;8.856;2023-05-10T00:05:03;5.30;;;2.17;;
31206;SDS011;17834;52.992;8.856;2023-05-10T00:07:29;4.15;;;2.00;;
31206;SDS011;17834;52.992;8.856;2023-05-10T00:09:55;3.60;;;2.08;;
31206;SDS011;17834;52.992;8.856;2023-05-10T00:12:21;4.68;;;2.38;;
31206;SDS011;17834;52.992;8.856;2023-05-10T00:14:46;6.25;;;2.47;;
31206;SDS011;17834;52.992;8.856;2023-05-10T00:17:12;5.65;;;2.03;;
31206;SDS011;17834;52.992;8.856;2023-05-10T00:19:38;5.70;;;2.30;;
31206;SDS011;17834;52.992;8.856;2023-05-10T00:22:03;4.72;;;2.40;;
31206;SDS011;17834;52.992;8.856;2023-05-10T00:24:29;3.40;;;2.33;;
31206;SDS011;17834;52.992;8.856;2023-05-10T00:26:54;5.70;;;2.50;;
31206;SDS011;17834;52.992;8.856;2023-05-10T00:29:20;5.32;;;2.72;;
31206;SDS011;17834;52.992;8.856;2023-05-10T00:31:45;5.22;;;2.13;;
31206;SDS011;17834;52.992;8.856;2023-05-10T00:34:11;3.45;;;1.90;;
31206;SDS011;17834;52.992;8.856;2023-05-10T00:36:37;3.33;;;2.03;;
31206;SDS011;17834;52.992;8.856;2023-05-10T00:39:02;3.60;;;2.00;;
31206;SDS011;17834;52.992;8.856;2023-05-10T00:41:28;4.03;;;2.58;;
31206;SDS011;17834;52.992;8.856;2023-05-10T00:43:56;3.55;;;2.08;;
31206;SDS011;17834;52.992;8.856;2023-05-10T00:46:22;5.15;;;2.75;;
31206;SDS011;17834;52.992;8.856;2023-05-10T00:48:48;3.47;;;1.80;;
31206;SDS011;17834;52.992;8.856;2023-05-10T00:51:14;3.13;;;2.03;;
31206;SDS011;17834;52.992;8.856;2023-05-10T00:53:39;3.65;;;2.05;;
31206;SDS011;17834;52.992;8.856;2023-05-10T00:56:05;3.22;;;1.98;;
31206;SDS011;17834;52.992;8.856;2023-05-10T00:58:31;3.60;;;2.28;;
31206;SDS011;17834;52.992;8.856;2023-05-10T01:00:57;4.07;;;2.40;;
31206;SDS011;17834;52.992;8.856;2023-05-10T01:03:23;4.90;;;2.30;;
31206;SDS011;17834;52.992;8.856;2023-05-10T01:05:49;3.40;;;2.15;;
31206;SDS011;17834;52.992;8.856;2023-05-10T01:08:15;4.13;;;2.17;;
31206;SDS011;17834;52.992;8.856;2023-05-10T01:10:41;5.15;;;2.20;;
31206;SDS011;17834;52.992;8.856;2023-05-10T01:13:07;3.25;;;2.10;;
31206;SDS011;17834;52.992;8.856;2023-05-10T01:15:34;3.40;;;1.88;;
31206;SDS011;17834;52.992;8.856;2023-05-10T01:18:00;4.47;;;2.20;;
31206;SDS011;17834;52.992;8.856;2023-05-10T01:20:27;4.30;;;2.50;;
31206;SDS011;17834;52.992;8.856;2023-05-10T01:23:04;4.38;;;2.30;;
31206;SDS011;17834;52.992;8.856;2023-05-10T01:25:56;4.85;;;2.05;;
31206;SDS011;17834;52.992;8.856;2023-05-10T01:34:34;3.58;;;2.25;;
31206;SDS011;17834;52.992;8.856;2023-05-10T01:37:06;4.78;;;2.50;;
31206;SDS011;17834;52.992;8.856;2023-05-10T01:39:59;5.38;;;2.53;;
31206;SDS011;17834;52.992;8.856;2023-05-10T01:42:52;4.10;;;2.20;;
31206;SDS011;17834;52.992;8.856;2023-05-10T01:45:27;5.25;;;2.67;;
31206;SDS011;17834;52.992;8.856;2023-05-10T01:48:06;4.35;;;2.38;;
31206;SDS011;17834;52.992;8.856;2023-05-10T01:50:35;5.05;;;2.63;;
31206;SDS011;17834;52.992;8.856;2023-05-10T01:53:02;5.25;;;2.58;;
31206;SDS011;17834;52.992;8.856;2023-05-10T01:55:35;3.72;;;2.30;;
31206;SDS011;17834;52.992;8.856;2023-05-10T01:58:20;5.18;;;2.78;;
31206;SDS011;17834;52.992;8.856;2023-05-10T02:00:50;4.85;;;2.78;;
31206;SDS011;17834;52.992;8.856;2023-05-10T02:03:17;5.03;;;2.35;;
31206;SDS011;17834;52.992;8.856;2023-05-10T02:05:45;5.13;;;2.80;;
31206;SDS011;17834;52.992;8.856;2023-05-10T02:08:11;4.45;;;2.30;;
31206;SDS011;17834;52.992;8.856;2023-05-10T02:10:39;4.00;;;2.63;;
31206;SDS011;17834;52.992;8.856;2023-05-10T02:13:07;4.88;;;2.63;;
31206;SDS011;17834;52.992;8.856;2023-05-10T02:15:35;6.63;;;2.63;;
31206;SDS011;17834;52.992;8.856;2023-05-10T02:18:03;6.07;;;2.63;;
31206;SDS011;17834;52.992;8.856;2023-05-10T02:20:30;4.45;;;2.95;;
31206;SDS011;17834;52.992;8.856;2023-05-10T02:22:57;6.72;;;3.05;;
31206;SDS011;17834;52.992;8.856;2023-05-10T02:25:24;4.72;;;2.67;;
31206;SDS011;17834;52.992;8.856;2023-05-10T02:27:52;4.95;;;3.17;;
31206;SDS011;17834;52.992;8.856;2023-05-10T02:30:20;5.63;;;2.95;;
31206;SDS011;17834;52.992;8.856;2023-05-10T02:32:47;7.20;;;3.35;;
31206;SDS011;17834;52.992;8.856;2023-05-10T02:35:14;6.32;;;3.30;;
31206;SDS011;17834;52.992;8.856;2023-05-10T02:37:41;7.10;;;3.55;;
31206;SDS011;17834;52.992;8.856;2023-05-10T02:40:08;8.07;;;3.10;;
31206;SDS011;17834;52.992;8.856;2023-05-10T02:42:35;4.80;;;2.67;;
31206;SDS011;17834;52.992;8.856;2023-05-10T02:45:05;4.80;;;2.78;;
31206;SDS011;17834;52.992;8.856;2023-05-10T02:47:35;6.50;;;3.03;;
31206;SDS011;17834;52.992;8.856;2023-05-10T02:50:01;5.38;;;3.17;;
31206;SDS011;17834;52.992;8.856;2023-05-10T02:52:29;7.25;;;3.55;;
31206;SDS011;17834;52.992;8.856;2023-05-10T02:55:02;5.47;;;3.17;;
31206;SDS011;17834;52.992;8.856;2023-05-10T02:57:31;4.80;;;3.30;;
31206;SDS011;17834;52.992;8.856;2023-05-10T02:59:58;6.00;;;3.15;;
31206;SDS011;17834;52.992;8.856;2023-05-10T03:02:25;5.72;;;3.50;;
31206;SDS011;17834;52.992;8.856;2023-05-10T03:04:51;6.20;;;3.38;;
31206;SDS011;17834;52.992;8.856;2023-05-10T03:07:16;5.03;;;2.97;;
31206;SDS011;17834;52.992;8.856;2023-05-10T03:09:44;7.18;;;3.28;;
31206;SDS011;17834;52.992;8.856;2023-05-10T03:12:11;7.70;;;3.80;;
31206;SDS011;17834;52.992;8.856;2023-05-10T03:18:05;5.00;;;3.10;;
31206;SDS011;17834;52.992;8.856;2023-05-10T03:23:13;8.18;;;3.80;;
31206;SDS011;17834;52.992;8.856;2023-05-10T03:25:51;6.72;;;4.22;;
31206;SDS011;17834;52.992;8.856;2023-05-10T03:28:17;6.22;;;3.83;;
31206;SDS011;17834;52.992;8.856;2023-05-10T03:30:45;5.70;;;3.25;;
31206;SDS011;17834;52.992;8.856;2023-05-10T03:33:11;6.00;;;3.70;;
31206;SDS011;17834;52.992;8.856;2023-05-10T03:35:38;7.38;;;3.95;;
31206;SDS011;17834;52.992;8.856;2023-05-10T03:38:03;8.60;;;4.00;;
31206;SDS011;17834;52.992;8.856;2023-05-10T03:40:29;5.45;;;3.45;;
31206;SDS011;17834;52.992;8.856;2023-05-10T03:42:56;7.20;;;4.28;;
31206;SDS011;17834;52.992;8.856;2023-05-10T03:45:22;7.00;;;4.40;;
31206;SDS011;17834;52.992;8.856;2023-05-10T03:47:48;6.38;;;4.65;;
31206;SDS011;17834;52.992;8.856;2023-05-10T03:50:13;9.70;;;4.20;;
31206;SDS011;17834;52.992;8.856;2023-05-10T03:52:39;6.22;;;4.13;;
31206;SDS011;17834;52.992;8.856;2023-05-10T03:55:05;7.03;;;4.15;;
31206;SDS011;17834;52.992;8.856;2023-05-10T03:57:31;5.90;;;3.65;;
31206;SDS011;17834;52.992;8.856;2023-05-10T03:59:57;6.53;;;4.55;;
31206;SDS011;17834;52.992;8.856;2023-05-10T04:02:22;7.38;;;4.65;;
31206;SDS011;17834;52.992;8.856;2023-05-10T04:04:48;7.32;;;4.50;;
31206;SDS011;17834;52.992;8.856;2023-05-10T04:07:14;8.20;;;4.60;;
31206;SDS011;17834;52.992;8.856;2023-05-10T04:09:39;8.00;;;4.25;;
31206;SDS011;17834;52.992;8.856;2023-05-10T04:12:05;6.68;;;4.63;;
31206;SDS011;17834;52.992;8.856;2023-05-10T04:14:31;8.30;;;4.35;;
31206;SDS011;17834;52.992;8.856;2023-05-10T04:16:56;7.80;;;4.70;;
31206;SDS011;17834;52.992;8.856;2023-05-10T04:19:22;6.07;;;4.40;;
31206;SDS011;17834;52.992;8.856;2023-05-10T04:21:48;6.97;;;4.32;;
31206;SDS011;17834;52.992;8.856;2023-05-10T04:24:14;7.05;;;4.85;;
31206;SDS011;17834;52.992;8.856;2023-05-10T04:26:39;8.38;;;4.22;;
31206;SDS011;17834;52.992;8.856;2023-05-10T04:29:05;7.13;;;4.40;;
31206;SDS011;17834;52.992;8.856;2023-05-10T04:31:31;9.55;;;4.55;;
31206;SDS011;17834;52.992;8.856;2023-05-10T04:33:56;6.72;;;4.75;;
31206;SDS011;17834;52.992;8.856;2023-05-10T04:36:22;9.63;;;5.15;;
31206;SDS011;17834;52.992;8.856;2023-05-10T04:38:47;11.85;;;5.53;;
31206;SDS011;17834;52.992;8.856;2023-05-10T04:41:13;7.38;;;4.97;;
31206;SDS011;17834;52.992;8.856;2023-05-10T04:43:38;9.48;;;4.95;;
31206;SDS011;17834;52.992;8.856;2023-05-10T04:46:04;13.27;;;5.75;;
31206;SDS011;17834;52.992;8.856;2023-05-10T04:48:30;9.30;;;4.93;;
31206;SDS011;17834;52.992;8.856;2023-05-10T04:50:56;7.90;;;5.10;;
31206;SDS011;17834;52.992;8.856;2023-05-10T04:53:21;7.68;;;5.40;;
31206;SDS011;17834;52.992;8.856;2023-05-10T04:55:47;9.10;;;5.38;;
31206;SDS011;17834;52.992;8.856;2023-05-10T04:58:13;10.43;;;5.63;;
31206;SDS011;17834;52.992;8.856;2023-05-10T05:00:39;7.35;;;5.07;;
31206;SDS011;17834;52.992;8.856;2023-05-10T05:03:04;10.57;;;5.40;;
31206;SDS011;17834;52.992;8.856;2023-05-10T05:05:31;11.90;;;6.35;;
31206;SDS011;17834;52.992;8.856;2023-05-10T05:07:56;7.50;;;4.97;;
31206;SDS011;17834;52.992;8.856;2023-05-10T05:10:22;9.35;;;5.05;;
31206;SDS011;17834;52.992;8.856;2023-05-10T05:12:47;7.57;;;4.88;;
31206;SDS011;17834;52.992;8.856;2023-05-10T05:15:13;8.52;;;5.55;;
31206;SDS011;17834;52.992;8.856;2023-05-10T05:17:40;8.20;;;4.88;;
31206;SDS011;17834;52.992;8.856;2023-05-10T05:20:05;7.75;;;5.45;;
31206;SDS011;17834;52.992;8.856;2023-05-10T05:22:32;9.93;;;5.53;;
31206;SDS011;17834;52.992;8.856;2023-05-10T05:24:57;7.60;;;5.43;;
31206;SDS011;17834;52.992;8.856;2023-05-10T05:27:23;9.18;;;5.55;;
31206;SDS011;17834;52.992;8.856;2023-05-10T05:29:54;8.48;;;5.43;;
31206;SDS011;17834;52.992;8.856;2023-05-10T05:32:20;7.75;;;5.32;;
31206;SDS011;17834;52.992;8.856;2023-05-10T05:34:46;9.50;;;6.05;;
31206;SDS011;17834;52.992;8.856;2023-05-10T05:37:13;11.77;;;5.97;;
31206;SDS011;17834;52.992;8.856;2023-05-10T05:39:43;8.50;;;5.47;;
31206;SDS011;17834;52.992;8.856;2023-05-10T05:42:09;12.20;;;6.28;;
31206;SDS011;17834;52.992;8.856;2023-05-10T05:44:35;10.82;;;6.80;;
31206;SDS011;17834;52.992;8.856;2023-05-10T05:47:01;11.70;;;6.40;;
31206;SDS011;17834;52.992;8.856;2023-05-10T05:49:26;9.00;;;6.28;;
31206;SDS011;17834;52.992;8.856;2023-05-10T05:51:52;10.48;;;6.25;;
31206;SDS011;17834;52.992;8.856;2023-05-10T05:54:17;11.85;;;5.90;;
31206;SDS011;17834;52.992;8.856;2023-05-10T05:56:43;10.05;;;6.28;;
31206;SDS011;17834;52.992;8.856;2023-05-10T05:59:09;12.32;;;6.72;;
31206;SDS011;17834;52.992;8.856;2023-05-10T06:01:35;11.38;;;6.30;;
31206;SDS011;17834;52.992;8.856;2023-05-10T06:04:01;12.55;;;7.13;;
31206;SDS011;17834;52.992;8.856;2023-05-10T06:06:26;10.48;;;6.13;;
31206;SDS011;17834;52.992;8.856;2023-05-10T06:08:52;14.98;;;7.03;;
31206;SDS011;17834;52.992;8.856;2023-05-10T06:11:18;13.30;;;7.57;;
31206;SDS011;17834;52.992;8.856;2023-05-10T06:13:44;12.73;;;7.68;;
31206;SDS011;17834;52.992;8.856;2023-05-10T06:16:09;12.20;;;7.22;;
31206;SDS011;17834;52.992;8.856;2023-05-10T06:18:35;15.25;;;7.68;;
31206;SDS011;17834;52.992;8.856;2023-05-10T06:21:01;12.88;;;8.38;;
31206;SDS011;17834;52.992;8.856;2023-05-10T06:23:26;10.18;;;6.65;;
31206;SDS011;17834;52.992;8.856;2023-05-10T06:25:52;15.93;;;7.22;;
31206;SDS011;17834;52.992;8.856;2023-05-10T06:28:17;12.90;;;7.78;;
31206;SDS011;17834;52.992;8.856;2023-05-10T06:30:43;12.48;;;7.68;;
31206;SDS011;17834;52.992;8.856;2023-05-10T06:33:09;14.43;;;8.00;;
31206;SDS011;17834;52.992;8.856;2023-05-10T06:35:34;14.18;;;7.57;;
31206;SDS011;17834;52.992;8.856;2023-05-10T06:38:01;15.25;;;8.52;;
31206;SDS011;17834;52.992;8.856;2023-05-10T06:40:27;14.25;;;8.82;;
31206;SDS011;17834;52.992;8.856;2023-05-10T06:42:52;14.75;;;8.65;;
31206;SDS011;17834;52.992;8.856;2023-05-10T06:45:18;13.50;;;7.75;;
31206;SDS011;17834;52.992;8.856;2023-05-10T06:47:44;16.33;;;8.15;;
31206;SDS011;17834;52.992;8.856;2023-05-10T06:50:10;10.48;;;6.28;;
31206;SDS011;17834;52.992;8.856;2023-05-10T06:52:36;12.05;;;8.10;;
31206;SDS011;17834;52.992;8.856;2023-05-10T06:55:03;14.38;;;7.32;;
31206;SDS011;17834;52.992;8.856;2023-05-10T06:57:29;12.65;;;7.53;;
31206;SDS011;17834;52.992;8.856;2023-05-10T06:59:55;17.17;;;8.20;;
31206;SDS011;17834;52.992;8.856;2023-05-10T07:02:21;13.23;;;8.38;;
31206;SDS011;17834;52.992;8.856;2023-05-10T07:04:47;12.75;;;7.32;;
31206;SDS011;17834;52.992;8.856;2023-05-10T07:07:13;11.88;;;7.57;;
31206;SDS011;17834;52.992;8.856;2023-05-10T07:09:39;14.57;;;7.57;;
31206;SDS011;17834;52.992;8.856;2023-05-10T07:12:05;14.85;;;8.50;;
31206;SDS011;17834;52.992;8.856;2023-05-10T07:14:31;15.05;;;8.13;;
31206;SDS011;17834;52.992;8.856;2023-05-10T07:16:56;13.35;;;7.97;;
31206;SDS011;17834;52.992;8.856;2023-05-10T07:19:22;13.77;;;7.95;;
31206;SDS011;17834;52.992;8.856;2023-05-10T07:21:48;12.23;;;8.18;;
31206;SDS011;17834;52.992;8.856;2023-05-10T07:24:13;14.63;;;9.07;;
31206;SDS011;17834;52.992;8.856;2023-05-10T07:26:39;12.48;;;9.13;;
31206;SDS011;17834;52.992;8.856;2023-05-10T07:29:04;14.88;;;8.35;;
31206;SDS011;17834;52.992;8.856;2023-05-10T07:31:30;13.13;;;8.60;;
31206;SDS011;17834;52.992;8.856;2023-05-10T07:33:55;11.60;;;7.43;;
31206;SDS011;17834;52.992;8.856;2023-05-10T07:36:21;14.13;;;7.55;;
31206;SDS011;17834;52.992;8.856;2023-05-10T07:38:47;12.73;;;7.68;;
31206;SDS011;17834;52.992;8.856;2023-05-10T07:41:12;10.75;;;7.22;;
31206;SDS011;17834;52.992;8.856;2023-05-10T07:43:38;10.82;;;5.72;;
31206;SDS011;17834;52.992;8.856;2023-05-10T07:46:04;9.52;;;6.30;;
31206;SDS011;17834;52.992;8.856;2023-05-10T07:48:30;8.85;;;5.82;;
31206;SDS011;17834;52.992;8.856;2023-05-10T07:50:56;8.88;;;5.15;;
31206;SDS011;17834;52.992;8.856;2023-05-10T07:53:21;9.00;;;5.03;;
31206;SDS011;17834;52.992;8.856;2023-05-10T07:55:51;5.82;;;3.38;;
31206;SDS011;17834;52.992;8.856;2023-05-10T07:58:19;5.03;;;2.78;;
31206;SDS011;17834;52.992;8.856;2023-05-10T08:00:44;5.13;;;2.70;;
31206;SDS011;17834;52.992;8.856;2023-05-10T08:03:10;5.18;;;3.03;;
31206;SDS011;17834;52.992;8.856;2023-05-10T08:05:36;4.90;;;2.53;;
31206;SDS011;17834;52.992;8.856;2023-05-10T08:08:01;5.95;;;2.67;;
31206;SDS011;17834;52.992;8.856;2023-05-10T08:10:27;4.40;;;2.70;;
31206;SDS011;17834;52.992;8.856;2023-05-10T08:12:52;4.50;;;3.08;;
31206;SDS011;17834;52.992;8.856;2023-05-10T08:15:18;6.78;;;3.88;;
31206;SDS011;17834;52.992;8.856;2023-05-10T08:17:44;5.03;;;3.50;;
31206;SDS011;17834;52.992;8.856;2023-05-10T08:20:09;4.10;;;3.08;;
31206;SDS011;17834;52.992;8.856;2023-05-10T08:22:37;4.65;;;3.10;;
31206;SDS011;17834;52.992;8.856;2023-05-10T08:25:03;4.65;;;3.17;;
31206;SDS011;17834;52.992;8.856;2023-05-10T08:27:29;5.65;;;3.20;;
31206;SDS011;17834;52.992;8.856;2023-05-10T08:29:54;4.55;;;3.25;;
31206;SDS011;17834;52.992;8.856;2023-05-10T08:32:20;4.82;;;2.92;;
31206;SDS011;17834;52.992;8.856;2023-05-10T08:34:46;3.90;;;2.75;;
31206;SDS011;17834;52.992;8.856;2023-05-10T08:37:11;2.55;;;1.90;;
31206;SDS011;17834;52.992;8.856;2023-05-10T08:39:38;2.47;;;1.67;;
31206;SDS011;17834;52.992;8.856;2023-05-10T08:42:04;2.38;;;1.70;;
31206;SDS011;17834;52.992;8.856;2023-05-10T08:44:33;4.05;;;2.50;;
31206;SDS011;17834;52.992;8.856;2023-05-10T08:47:02;3.25;;;1.75;;
31206;SDS011;17834;52.992;8.856;2023-05-10T08:49:31;2.85;;;2.00;;
31206;SDS011;17834;52.992;8.856;2023-05-10T08:51:58;2.63;;;1.80;;
31206;SDS011;17834;52.992;8.856;2023-05-10T08:54:28;2.28;;;1.67;;
31206;SDS011;17834;52.992;8.856;2023-05-10T08:56:54;2.47;;;1.67;;
31206;SDS011;17834;52.992;8.856;2023-05-10T08:59:20;4.22;;;1.73;;
31206;SDS011;17834;52.992;8.856;2023-05-10T09:01:47;1.77;;;1.20;;
31206;SDS011;17834;52.992;8.856;2023-05-10T09:04:14;3.55;;;1.33;;
31206;SDS011;17834;52.992;8.856;2023-05-10T09:06:40;3.53;;;2.33;;
31206;SDS011;17834;52.992;8.856;2023-05-10T09:09:06;1.65;;;1.10;;
31206;SDS011;17834;52.992;8.856;2023-05-10T09:11:32;2.30;;;1.48;;
31206;SDS011;17834;52.992;8.856;2023-05-10T09:13:58;2.08;;;1.25;;
31206;SDS011;17834;52.992;8.856;2023-05-10T09:16:23;2.53;;;1.67;;
31206;SDS011;17834;52.992;8.856;2023-05-10T09:18:49;3.70;;;1.58;;
31206;SDS011;17834;52.992;8.856;2023-05-10T09:21:15;3.42;;;1.92;;
31206;SDS011;17834;52.992;8.856;2023-05-10T09:23:44;3.40;;;2.00;;
31206;SDS011;17834;52.992;8.856;2023-05-10T09:26:11;4.35;;;2.10;;
31206;SDS011;17834;52.992;8.856;2023-05-10T09:28:50;3.78;;;1.98;;
31206;SDS011;17834;52.992;8.856;2023-05-10T09:31:20;4.28;;;1.92;;
31206;SDS011;17834;52.992;8.856;2023-05-10T09:33:47;3.10;;;1.90;;
31206;SDS011;17834;52.992;8.856;2023-05-10T09:36:13;4.43;;;2.03;;
31206;SDS011;17834;52.992;8.856;2023-05-10T09:38:49;4.00;;;2.60;;
31206;SDS011;17834;52.992;8.856;2023-05-10T09:41:19;4.78;;;2.17;;
31206;SDS011;17834;52.992;8.856;2023-05-10T09:43:46;3.53;;;2.30;;
31206;SDS011;17834;52.992;8.856;2023-05-10T09:46:12;4.10;;;2.22;;
31206;SDS011;17834;52.992;8.856;2023-05-10T09:48:44;4.97;;;2.30;;
31206;SDS011;17834;52.992;8.856;2023-05-10T09:51:21;4.82;;;2.40;;
31206;SDS011;17834;52.992;8.856;2023-05-10T09:53:47;5.45;;;2.58;;
31206;SDS011;17834;52.992;8.856;2023-05-10T09:56:31;4.43;;;2.28;;
31206;SDS011;17834;52.992;8.856;2023-05-10T09:59:02;4.97;;;1.92;;
31206;SDS011;17834;52.992;8.856;2023-05-10T10:01:28;3.50;;;2.35;;
31206;SDS011;17834;52.992;8.856;2023-05-10T10:03:54;4.50;;;2.50;;
31206;SDS011;17834;52.992;8.856;2023-05-10T10:06:22;4.47;;;2.17;;
31206;SDS011;17834;52.992;8.856;2023-05-10T10:08:48;4.10;;;2.08;;
31206;SDS011;17834;52.992;8.856;2023-05-10T10:11:14;4.25;;;2.22;;
31206;SDS011;17834;52.992;8.856;2023-05-10T10:13:40;3.90;;;2.53;;
31206;SDS011;17834;52.992;8.856;2023-05-10T10:16:06;5.50;;;2.15;;
31206;SDS011;17834;52.992;8.856;2023-05-10T10:18:33;4.30;;;2.13;;
31206;SDS011;17834;52.992;8.856;2023-05-10T10:21:03;4.90;;;1.60;;
31206;SDS011;17834;52.992;8.856;2023-05-10T10:23:33;5.50;;;1.80;;
31206;SDS011;17834;52.992;8.856;2023-05-10T10:25:59;4.57;;;2.35;;
31206;SDS011;17834;52.992;8.856;2023-05-10T10:34:09;4.55;;;2.20;;
31206;SDS011;17834;52.992;8.856;2023-05-10T10:36:42;4.30;;;2.35;;
31206;SDS011;17834;52.992;8.856;2023-05-10T10:39:11;4.07;;;2.30;;
31206;SDS011;17834;52.992;8.856;2023-05-10T10:41:38;2.63;;;1.75;;
31206;SDS011;17834;52.992;8.856;2023-05-10T10:47:00;3.60;;;1.70;;
31206;SDS011;17834;52.992;8.856;2023-05-10T10:54:59;2.45;;;1.30;;
31206;SDS011;17834;52.992;8.856;2023-05-10T10:57:27;5.65;;;1.70;;
31206;SDS011;17834;52.992;8.856;2023-05-10T11:02:43;3.35;;;1.30;;
31206;SDS011;17834;52.992;8.856;2023-05-10T11:07:59;2.25;;;1.40;;
31206;SDS011;17834;52.992;8.856;2023-05-10T11:10:31;3.50;;;1.42;;
31206;SDS011;17834;52.992;8.856;2023-05-10T11:13:00;3.20;;;1.95;;
31206;SDS011;17834;52.992;8.856;2023-05-10T11:15:31;3.03;;;1.65;;
31206;SDS011;17834;52.992;8.856;2023-05-10T11:17:57;2.80;;;1.70;;
31206;SDS011;17834;52.992;8.856;2023-05-10T11:20:23;3.50;;;2.03;;
31206;SDS011;17834;52.992;8.856;2023-05-10T11:22:58;4.68;;;2.28;;
31206;SDS011;17834;52.992;8.856;2023-05-10T11:25:40;3.35;;;1.70;;
31206;SDS011;17834;52.992;8.856;2023-05-10T11:28:09;5.10;;;1.65;;
31206;SDS011;17834;52.992;8.856;2023-05-10T11:30:35;1.92;;;1.20;;
31206;SDS011;17834;52.992;8.856;2023-05-10T11:33:02;2.35;;;1.27;;
31206;SDS011;17834;52.992;8.856;2023-05-10T11:35:28;4.60;;;1.55;;
31206;SDS011;17834;52.992;8.856;2023-05-10T11:37:53;2.70;;;1.65;;
31206;SDS011;17834;52.992;8.856;2023-05-10T11:40:21;1.55;;;0.82;;
31206;SDS011;17834;52.992;8.856;2023-05-10T11:42:48;1.80;;;1.15;;
31206;SDS011;17834;52.992;8.856;2023-05-10T11:45:14;2.08;;;1.25;;
31206;SDS011;17834;52.992;8.856;2023-05-10T11:47:39;1.52;;;1.08;;
31206;SDS011;17834;52.992;8.856;2023-05-10T11:50:07;1.73;;;0.90;;
31206;SDS011;17834;52.992;8.856;2023-05-10T11:52:36;1.75;;;0.80;;
31206;SDS011;17834;52.992;8.856;2023-05-10T11:55:04;2.00;;;0.80;;
31206;SDS011;17834;52.992;8.856;2023-05-10T11:57:30;1.85;;;0.70;;
31206;SDS011;17834;52.992;8.856;2023-05-10T11:59:56;0.65;;;0.45;;
31206;SDS011;17834;52.992;8.856;2023-05-10T12:02:22;0.85;;;0.40;;
31206;SDS011;17834;52.992;8.856;2023-05-10T12:04:49;1.13;;;0.47;;
31206;SDS011;17834;52.992;8.856;2023-05-10T12:07:15;0.85;;;0.45;;
31206;SDS011;17834;52.992;8.856;2023-05-10T12:09:55;1.85;;;1.00;;
31206;SDS011;17834;52.992;8.856;2023-05-10T12:12:34;1.65;;;0.52;;
31206;SDS011;17834;52.992;8.856;2023-05-10T12:15:02;1.83;;;0.40;;
31206;SDS011;17834;52.992;8.856;2023-05-10T12:17:28;1.33;;;0.55;;
31206;SDS011;17834;52.992;8.856;2023-05-10T12:19:58;1.55;;;0.50;;
31206;SDS011;17834;52.992;8.856;2023-05-10T12:22:37;0.52;;;0.43;;
31206;SDS011;17834;52.992;8.856;2023-05-10T12:25:03;0.75;;;0.52;;
31206;SDS011;17834;52.992;8.856;2023-05-10T12:27:31;0.85;;;0.75;;
31206;SDS011;17834;52.992;8.856;2023-05-10T12:29:58;2.28;;;0.90;;
31206;SDS011;17834;52.992;8.856;2023-05-10T12:32:36;1.02;;;0.73;;
31206;SDS011;17834;52.992;8.856;2023-05-10T12:35:08;1.08;;;0.80;;
31206;SDS011;17834;52.992;8.856;2023-05-10T12:37:34;1.00;;;0.80;;
31206;SDS011;17834;52.992;8.856;2023-05-10T12:40:04;1.38;;;0.82;;
31206;SDS011;17834;52.992;8.856;2023-05-10T12:42:31;2.33;;;1.20;;
31206;SDS011;17834;52.992;8.856;2023-05-10T12:44:57;1.88;;;1.10;;
31206;SDS011;17834;52.992;8.856;2023-05-10T12:47:22;1.98;;;1.45;;
31206;SDS011;17834;52.992;8.856;2023-05-10T12:49:48;4.60;;;1.30;;
31206;SDS011;17834;52.992;8.856;2023-05-10T12:52:14;1.50;;;1.10;;
31206;SDS011;17834;52.992;8.856;2023-05-10T12:54:39;2.15;;;1.13;;
31206;SDS011;17834;52.992;8.856;2023-05-10T12:57:05;1.23;;;0.98;;
31206;SDS011;17834;52.992;8.856;2023-05-10T12:59:30;2.15;;;1.15;;
31206;SDS011;17834;52.992;8.856;2023-05-10T13:01:56;1.38;;;0.80;;
31206;SDS011;17834;52.992;8.856;2023-05-10T13:04:22;1.30;;;0.88;;
31206;SDS011;17834;52.992;8.856;2023-05-10T13:06:48;1.08;;;0.60;;
31206;SDS011;17834;52.992;8.856;2023-05-10T13:09:14;1.00;;;0.52;;
31206;SDS011;17834;52.992;8.856;2023-05-10T13:11:40;2.25;;;1.10;;
31206;SDS011;17834;52.992;8.856;2023-05-10T13:14:12;3.42;;;0.40;;
31206;SDS011;17834;52.992;8.856;2023-05-10T13:16:39;0.65;;;0.40;;
31206;SDS011;17834;52.992;8.856;2023-05-10T13:19:04;0.52;;;0.38;;
31206;SDS011;17834;52.992;8.856;2023-05-10T13:21:30;0.93;;;0.50;;
31206;SDS011;17834;52.992;8.856;2023-05-10T13:23:56;0.80;;;0.60;;
31206;SDS011;17834;52.992;8.856;2023-05-10T13:26:21;0.70;;;0.50;;
31206;SDS011;17834;52.992;8.856;2023-05-10T13:28:47;0.95;;;0.43;;
31206;SDS011;17834;52.992;8.856;2023-05-10T13:31:13;0.77;;;0.57;;
31206;SDS011;17834;52.992;8.856;2023-05-10T13:33:39;1.83;;;0.73;;
31206;SDS011;17834;52.992;8.856;2023-05-10T13:36:05;3.33;;;0.60;;
31206;SDS011;17834;52.992;8.856;2023-05-10T13:38:31;0.70;;;0.40;;
31206;SDS011;17834;52.992;8.856;2023-05-10T13:40:56;0.73;;;0.43;;
31206;SDS011;17834;52.992;8.856;2023-05-10T13:43:23;0.80;;;0.45;;
31206;SDS011;17834;52.992;8.856;2023-05-10T13:45:49;0.98;;;0.60;;
31206;SDS011;17834;52.992;8.856;2023-05-10T13:48:14;0.80;;;0.50;;
31206;SDS011;17834;52.992;8.856;2023-05-10T13:50:41;1.38;;;0.73;;
31206;SDS011;17834;52.992;8.856;2023-05-10T13:53:08;1.25;;;0.90;;
31206;SDS011;17834;52.992;8.856;2023-05-10T13:55:33;1.05;;;0.70;;
31206;SDS011;17834;52.992;8.856;2023-05-10T13:57:59;1.08;;;0.80;;
31206;SDS011;17834;52.992;8.856;2023-05-10T14:00:25;1.70;;;0.80;;
31206;SDS011;17834;52.992;8.856;2023-05-10T14:02:50;1.52;;;0.98;;
31206;SDS011;17834;52.992;8.856;2023-05-10T14:05:16;1.58;;;0.98;;
31206;SDS011;17834;52.992;8.856;2023-05-10T14:07:41;2.15;;;1.20;;
31206;SDS011;17834;52.992;8.856;2023-05-10T14:10:07;1.33;;;0.80;;
31206;SDS011;17834;52.992;8.856;2023-05-10T14:12:33;1.48;;;0.80;;
31206;SDS011;17834;52.992;8.856;2023-05-10T14:14:58;1.88;;;0.90;;
31206;SDS011;17834;52.992;8.856;2023-05-10T14:17:24;1.73;;;0.90;;
31206;SDS011;17834;52.992;8.856;2023-05-10T14:19:49;1.55;;;0.90;;
31206;SDS011;17834;52.992;8.856;2023-05-10T14:22:15;2.33;;;1.05;;
31206;SDS011;17834;52.992;8.856;2023-05-10T14:24:40;2.75;;;1.48;;
31206;SDS011;17834;52.992;8.856;2023-05-10T14:27:06;2.35;;;1.50;;
31206;SDS011;17834;52.992;8.856;2023-05-10T14:29:31;2.45;;;1.10;;
31206;SDS011;17834;52.992;8.856;2023-05-10T14:31:57;2.20;;;1.48;;
31206;SDS011;17834;52.992;8.856;2023-05-10T14:34:23;2.05;;;1.15;;
31206;SDS011;17834;52.992;8.856;2023-05-10T14:36:49;3.55;;;1.08;;
31206;SDS011;17834;52.992;8.856;2023-05-10T14:39:15;1.40;;;0.98;;
31206;SDS011;17834;52.992;8.856;2023-05-10T14:41:41;2.78;;;1.02;;
31206;SDS011;17834;52.992;8.856;2023-05-10T14:44:07;1.90;;;1.25;;
31206;SDS011;17834;52.992;8.856;2023-05-10T14:46:33;1.33;;;1.00;;
31206;SDS011;17834;52.992;8.856;2023-05-10T14:48:59;1.50;;;0.73;;
31206;SDS011;17834;52.992;8.856;2023-05-10T14:51:24;1.52;;;0.90;;
31206;SDS011;17834;52.992;8.856;2023-05-10T14:53:50;1.88;;;1.27;;
31206;SDS011;17834;52.992;8.856;2023-05-10T14:56:15;1.52;;;1.00;;
31206;SDS011;17834;52.992;8.856;2023-05-10T14:58:41;1.95;;;1.10;;
31206;SDS011;17834;52.992;8.856;2023-05-10T15:01:07;1.90;;;1.10;;
31206;SDS011;17834;52.992;8.856;2023-05-10T15:03:32;1.77;;;0.98;;
31206;SDS011;17834;52.992;8.856;2023-05-10T15:05:58;1.73;;;1.13;;
31206;SDS011;17834;52.992;8.856;2023-05-10T15:08:23;4.93;;;1.30;;
31206;SDS011;17834;52.992;8.856;2023-05-10T15:10:49;1.98;;;1.38;;
31206;SDS011;17834;52.992;8.856;2023-05-10T15:13:15;1.52;;;1.20;;
31206;SDS011;17834;52.992;8.856;2023-05-10T15:15:41;2.45;;;1.20;;